P.t. Monto — VMBF — position and weather

sailwx.info

Track history (hours):
 
Tides and Currents Weather Stations Pressure Air Temp Water Temp Dewpoint Dewpoint Depression Visibility Wind Speed Wind Dir Waves Ship Positions

P.t. Monto

Last reported at 2014-Dec-18 00:19 UTC. Time now 2014-Dec-18 13:28 UTC.
Position S 27°27' E 153°05'.

Length 32 m; draft 3 m.

Type: Tug. MMSI: 503612000.

Date/timePositionNaut miles runAvg speedWind from/ knotsBaromVisibWave heightAir tempDewpointWater temp
2014-Dec-18 00:19S 27°27' E 153°05'0 0.1
2014-Dec-17 23:33S 27°27' E 153°05'0 0.0
2014-Dec-17 22:30S 27°27' E 153°05'0 0.0
2014-Dec-17 20:33S 27°27' E 153°05'0 0.0
2014-Dec-17 19:33S 27°27' E 153°05'0 0.0
2014-Dec-17 18:33S 27°27' E 153°05'0 0.1
2014-Dec-17 17:33S 27°27' E 153°05'0 0.1
2014-Dec-17 16:33S 27°27' E 153°05'0 0.1
2014-Dec-17 15:33S 27°27' E 153°05'0 0.1
2014-Dec-17 14:33S 27°27' E 153°05'0 0.0
2014-Dec-17 13:07S 27°27' E 153°05'0 0.0
2014-Dec-17 12:14S 27°27' E 153°05'0 0.0
2014-Dec-17 11:33S 27°27' E 153°05'0 0.1
2014-Dec-17 10:33S 27°27' E 153°05'0 0.1
2014-Dec-17 09:33S 27°27' E 153°05'0 0.0
2014-Dec-17 07:22S 27°27' E 153°05'0 0.0
2014-Dec-17 06:11S 27°27' E 153°05'0 0.0
2014-Dec-17 02:10S 27°27' E 153°05'0 0.1
2014-Dec-17 01:33S 27°27' E 153°05'0 0.0
2014-Dec-17 00:19S 27°27' E 153°05'0 0.1
2014-Dec-16 23:25S 27°27' E 153°05'0 0.0
2014-Dec-16 22:09S 27°27' E 153°05'0 0.1
2014-Dec-16 21:33S 27°27' E 153°05'0 0.0
2014-Dec-16 20:16S 27°27' E 153°05'0 0.0
2014-Dec-16 19:25S 27°27' E 153°05'0 0.0
2014-Dec-16 18:30S 27°27' E 153°05'0 0.1
2014-Dec-16 17:33S 27°27' E 153°05'0 0.1
2014-Dec-16 16:33S 27°27' E 153°05'0 0.0
2014-Dec-16 15:25S 27°27' E 153°05'0 0.0
2014-Dec-16 14:26S 27°27' E 153°05'0 0.0
2014-Dec-16 13:33S 27°27' E 153°05'0 0.0
2014-Dec-16 12:33S 27°27' E 153°05'0 0.0
2014-Dec-16 11:29S 27°27' E 153°05'0 0.1
2014-Dec-16 10:33S 27°27' E 153°05'0 0.0
2014-Dec-16 08:33S 27°27' E 153°05'0 0.0
2014-Dec-16 07:33S 27°27' E 153°05'0 0.0
2014-Dec-16 01:07S 27°27' E 153°05'0 0.0
2014-Dec-15 23:33S 27°27' E 153°05'0 0.0
2014-Dec-15 22:32S 27°27' E 153°05'0 0.0
2014-Dec-15 21:24S 27°27' E 153°05'0 0.1
2014-Dec-15 20:33S 27°27' E 153°05'0 0.0
2014-Dec-15 19:33S 27°27' E 153°05'0 0.0
2014-Dec-15 18:33S 27°27' E 153°05'0 0.0
2014-Dec-15 17:33S 27°27' E 153°05'0 0.0
2014-Dec-15 16:31S 27°27' E 153°05'0 0.0
2014-Dec-15 15:33S 27°27' E 153°05'0 0.0
2014-Dec-15 14:33S 27°27' E 153°05'0 0.0
2014-Dec-15 13:33S 27°27' E 153°05'0 0.0
2014-Dec-15 12:32S 27°27' E 153°05'0 0.0
2014-Dec-15 11:33S 27°27' E 153°05'0 0.0
2014-Dec-15 10:32S 27°27' E 153°05'0 0.0
2014-Dec-15 09:32S 27°27' E 153°05'0 0.0
2014-Dec-15 08:33S 27°27' E 153°05'0 0.0
2014-Dec-15 07:33S 27°27' E 153°05'5 1.1
2014-Dec-15 02:33S 27°23' E 153°09'5 5.3
2014-Dec-15 01:33S 27°19' E 153°13'7 6.8
2014-Dec-15 00:33S 27°13' E 153°17'6 6.2
2014-Dec-14 23:33S 27°07' E 153°19'6 5.8
2014-Dec-14 22:33S 27°02' E 153°15'6 6.0
2014-Dec-14 21:33S 26°57' E 153°12'6 6.0
2014-Dec-14 20:33S 26°52' E 153°09'5 4.8
2014-Dec-14 19:33S 26°47' E 153°11'4 4.0
2014-Dec-14 18:33S 26°43' E 153°12'3 3.1
2014-Dec-14 17:33S 26°46' E 153°14'3 3.1
2014-Dec-14 16:33S 26°49' E 153°16'3 3.0
2014-Dec-14 15:33S 26°51' E 153°18'3 3.0
2014-Dec-14 14:33S 26°53' E 153°20'1 1.2
2014-Dec-14 13:33S 26°54' E 153°20'4 3.5
2014-Dec-14 12:32S 26°56' E 153°23'1 1.4
2014-Dec-14 11:33S 26°55' E 153°24'3 2.7
2014-Dec-14 10:33S 26°54' E 153°22'2 1.6
2014-Dec-14 09:33S 26°54' E 153°20'4 3.7
2014-Dec-14 08:33S 26°57' E 153°23'1 1.5
2014-Dec-14 07:33S 26°55' E 153°24'2 2.3
2014-Dec-14 06:33S 26°54' E 153°22'2 2.3
2014-Dec-14 05:33S 26°53' E 153°21'3 2.6
2014-Dec-14 04:33S 26°55' E 153°22'8 3.5
2014-Dec-14 02:25S 26°57' E 153°30'5 5.9
2014-Dec-14 01:32S 27°02' E 153°31'6 5.6
2014-Dec-14 00:33S 27°07' E 153°31'5 5.3
2014-Dec-13 23:33S 27°13' E 153°30'5 5.4
2014-Dec-13 22:33S 27°18' E 153°33'7 5.7
2014-Dec-13 21:16S 27°24' E 153°35'3 4.8
2014-Dec-13 20:33S 27°28' E 153°35'4 4.4
2014-Dec-13 19:33S 27°32' E 153°35'4 4.5
2014-Dec-13 18:33S 27°37' E 153°35'4 4.2
2014-Dec-13 17:33S 27°41' E 153°34'4 4.3
2014-Dec-13 16:33S 27°45' E 153°34'4 4.3
2014-Dec-13 15:33S 27°49' E 153°36'4 3.9
2014-Dec-13 14:33S 27°52' E 153°39'4 3.6
2014-Dec-13 13:32S 27°55' E 153°42'  
Track history (hours):
 
Tides and Currents Weather Stations Pressure Air Temp Water Temp Dewpoint Dewpoint Depression Visibility Wind Speed Wind Dir Waves Ship Positions

P.t. Monto

Last reported at 2014-Dec-18 00:19 UTC. Time now 2014-Dec-18 13:28 UTC.
Position S 27°27' E 153°05'.

Length 32 m; draft 3 m.

Type: Tug. MMSI: 503612000.

Date/timePositionNaut miles runAvg speedWind from/ knotsBaromVisibWave heightAir tempDewpointWater temp
2014-Dec-18 00:19S 27°27' E 153°05'0 0.1
2014-Dec-17 23:33S 27°27' E 153°05'0 0.0
2014-Dec-17 22:30S 27°27' E 153°05'0 0.0
2014-Dec-17 20:33S 27°27' E 153°05'0 0.0
2014-Dec-17 19:33S 27°27' E 153°05'0 0.0
2014-Dec-17 18:33S 27°27' E 153°05'0 0.1
2014-Dec-17 17:33S 27°27' E 153°05'0 0.1
2014-Dec-17 16:33S 27°27' E 153°05'0 0.1
2014-Dec-17 15:33S 27°27' E 153°05'0 0.1
2014-Dec-17 14:33S 27°27' E 153°05'0 0.0
2014-Dec-17 13:07S 27°27' E 153°05'0 0.0
2014-Dec-17 12:14S 27°27' E 153°05'0 0.0
2014-Dec-17 11:33S 27°27' E 153°05'0 0.1
2014-Dec-17 10:33S 27°27' E 153°05'0 0.1
2014-Dec-17 09:33S 27°27' E 153°05'0 0.0
2014-Dec-17 07:22S 27°27' E 153°05'0 0.0
2014-Dec-17 06:11S 27°27' E 153°05'0 0.0
2014-Dec-17 02:10S 27°27' E 153°05'0 0.1
2014-Dec-17 01:33S 27°27' E 153°05'0 0.0
2014-Dec-17 00:19S 27°27' E 153°05'0 0.1
2014-Dec-16 23:25S 27°27' E 153°05'0 0.0
2014-Dec-16 22:09S 27°27' E 153°05'0 0.1
2014-Dec-16 21:33S 27°27' E 153°05'0 0.0
2014-Dec-16 20:16S 27°27' E 153°05'0 0.0
2014-Dec-16 19:25S 27°27' E 153°05'0 0.0
2014-Dec-16 18:30S 27°27' E 153°05'0 0.1
2014-Dec-16 17:33S 27°27' E 153°05'0 0.1
2014-Dec-16 16:33S 27°27' E 153°05'0 0.0
2014-Dec-16 15:25S 27°27' E 153°05'0 0.0
2014-Dec-16 14:26S 27°27' E 153°05'0 0.0
2014-Dec-16 13:33S 27°27' E 153°05'0 0.0
2014-Dec-16 12:33S 27°27' E 153°05'0 0.0
2014-Dec-16 11:29S 27°27' E 153°05'0 0.1
2014-Dec-16 10:33S 27°27' E 153°05'0 0.0
2014-Dec-16 08:33S 27°27' E 153°05'0 0.0
2014-Dec-16 07:33S 27°27' E 153°05'0 0.0
2014-Dec-16 01:07S 27°27' E 153°05'0 0.0
2014-Dec-15 23:33S 27°27' E 153°05'0 0.0
2014-Dec-15 22:32S 27°27' E 153°05'0 0.0
2014-Dec-15 21:24S 27°27' E 153°05'0 0.1
2014-Dec-15 20:33S 27°27' E 153°05'0 0.0
2014-Dec-15 19:33S 27°27' E 153°05'0 0.0
2014-Dec-15 18:33S 27°27' E 153°05'0 0.0
2014-Dec-15 17:33S 27°27' E 153°05'0 0.0
2014-Dec-15 16:31S 27°27' E 153°05'0 0.0
2014-Dec-15 15:33S 27°27' E 153°05'0 0.0
2014-Dec-15 14:33S 27°27' E 153°05'0 0.0
2014-Dec-15 13:33S 27°27' E 153°05'0 0.0
2014-Dec-15 12:32S 27°27' E 153°05'0 0.0
2014-Dec-15 11:33S 27°27' E 153°05'0 0.0
2014-Dec-15 10:32S 27°27' E 153°05'0 0.0
2014-Dec-15 09:32S 27°27' E 153°05'0 0.0
2014-Dec-15 08:33S 27°27' E 153°05'0 0.0
2014-Dec-15 07:33S 27°27' E 153°05'5 1.1
2014-Dec-15 02:33S 27°23' E 153°09'5 5.3
2014-Dec-15 01:33S 27°19' E 153°13'7 6.8
2014-Dec-15 00:33S 27°13' E 153°17'6 6.2
2014-Dec-14 23:33S 27°07' E 153°19'6 5.8
2014-Dec-14 22:33S 27°02' E 153°15'6 6.0
2014-Dec-14 21:33S 26°57' E 153°12'6 6.0
2014-Dec-14 20:33S 26°52' E 153°09'5 4.8
2014-Dec-14 19:33S 26°47' E 153°11'4 4.0
2014-Dec-14 18:33S 26°43' E 153°12'3 3.1
2014-Dec-14 17:33S 26°46' E 153°14'3 3.1
2014-Dec-14 16:33S 26°49' E 153°16'3 3.0
2014-Dec-14 15:33S 26°51' E 153°18'3 3.0
2014-Dec-14 14:33S 26°53' E 153°20'1 1.2
2014-Dec-14 13:33S 26°54' E 153°20'4 3.5
2014-Dec-14 12:32S 26°56' E 153°23'1 1.4
2014-Dec-14 11:33S 26°55' E 153°24'3 2.7
2014-Dec-14 10:33S 26°54' E 153°22'2 1.6
2014-Dec-14 09:33S 26°54' E 153°20'4 3.7
2014-Dec-14 08:33S 26°57' E 153°23'1 1.5
2014-Dec-14 07:33S 26°55' E 153°24'2 2.3
2014-Dec-14 06:33S 26°54' E 153°22'2 2.3
2014-Dec-14 05:33S 26°53' E 153°21'3 2.6
2014-Dec-14 04:33S 26°55' E 153°22'8 3.5
2014-Dec-14 02:25S 26°57' E 153°30'5 5.9
2014-Dec-14 01:32S 27°02' E 153°31'6 5.6
2014-Dec-14 00:33S 27°07' E 153°31'5 5.3
2014-Dec-13 23:33S 27°13' E 153°30'5 5.4
2014-Dec-13 22:33S 27°18' E 153°33'7 5.7
2014-Dec-13 21:16S 27°24' E 153°35'3 4.8
2014-Dec-13 20:33S 27°28' E 153°35'4 4.4
2014-Dec-13 19:33S 27°32' E 153°35'4 4.5
2014-Dec-13 18:33S 27°37' E 153°35'4 4.2
2014-Dec-13 17:33S 27°41' E 153°34'4 4.3
2014-Dec-13 16:33S 27°45' E 153°34'4 4.3
2014-Dec-13 15:33S 27°49' E 153°36'4 3.9
2014-Dec-13 14:33S 27°52' E 153°39'4 3.6
2014-Dec-13 13:32S 27°55' E 153°42'  

Dump ship's entire track history